Time;durP1;ratioP1;P1;durP2;ratioP2;P2;SDS_P1;SDS_P2;PMS_P1;PMS_P2;Temp;Humidity;BMP_temperature;BMP_pressure;BME280_temperature;BME280_humidity;BME280_pressure;Samples;Min_cycle;Max_cycle;Signal;HPM_P1;HPM_P2
2021/08/22 00:01:15;;;;;;;11.43;3.22;;;20.30;56.00;;;;;;5052745;28;20021;-68
2021/08/22 00:03:40;;;;;;;4.93;3.45;;;20.30;56.00;;;;;;5052722;28;20021;-68
2021/08/22 00:06:06;;;;;;;6.00;3.00;;;20.30;56.30;;;;;;5052820;28;20470;-68
2021/08/22 00:08:36;;;;;;;4.50;3.38;;;20.20;56.10;;;;;;5052542;28;20021;-68
2021/08/22 00:11:01;;;;;;;8.45;3.67;;;20.30;56.30;;;;;;5052892;28;20485;-68
2021/08/22 00:13:27;;;;;;;5.47;3.47;;;20.30;56.50;;;;;;5052491;28;20025;-68
2021/08/22 00:15:54;;;;;;;6.15;3.33;;;20.20;56.40;;;;;;5052539;28;20090;-69
2021/08/22 00:18:20;;;;;;;4.40;3.47;;;20.20;56.50;;;;;;5052381;28;20021;-68
2021/08/22 00:20:46;;;;;;;7.15;3.38;;;20.20;56.60;;;;;;5052409;28;20071;-68
2021/08/22 00:23:11;;;;;;;9.23;3.45;;;20.20;56.80;;;;;;5052357;28;20086;-68
2021/08/22 00:25:37;;;;;;;5.80;3.83;;;20.20;57.00;;;;;;5052445;28;20074;-68
2021/08/22 00:28:03;;;;;;;10.18;3.53;;;20.10;57.10;;;;;;5052206;28;20072;-69
2021/08/22 00:30:29;;;;;;;5.53;3.30;;;20.10;57.00;;;;;;5052437;28;20028;-69
2021/08/22 00:32:54;;;;;;;14.25;3.97;;;20.10;57.00;;;;;;5052413;28;20033;-69
2021/08/22 00:35:20;;;;;;;5.68;3.38;;;20.10;57.20;;;;;;5052184;28;20021;-69
2021/08/22 00:37:46;;;;;;;9.65;4.60;;;20.10;57.40;;;;;;5052265;28;20017;-69
2021/08/22 00:40:12;;;;;;;7.25;3.30;;;20.10;57.70;;;;;;5052265;28;20021;-69
2021/08/22 00:42:38;;;;;;;11.23;3.78;;;20.10;57.90;;;;;;5034302;28;20144;-68
2021/08/22 00:45:09;;;;;;;8.30;3.25;;;20.10;57.60;;;;;;5052322;28;20048;-69
2021/08/22 00:47:46;;;;;;;5.32;3.28;;;20.10;57.80;;;;;;5052179;28;20428;-69
2021/08/22 00:50:16;;;;;;;6.45;3.28;;;20.10;58.30;;;;;;5052181;28;20021;-69
2021/08/22 00:52:43;;;;;;;5.43;3.30;;;20.10;57.90;;;;;;5052131;28;20025;-69
2021/08/22 00:55:09;;;;;;;5.40;2.88;;;20.20;57.90;;;;;;5052095;28;20170;-69
2021/08/22 00:57:35;;;;;;;6.65;3.38;;;20.10;57.90;;;;;;5052099;28;20022;-69
2021/08/22 01:00:05;;;;;;;3.72;2.92;;;20.10;57.90;;;;;;5052226;28;20088;-69
2021/08/22 01:02:34;;;;;;;5.10;3.15;;;20.10;58.00;;;;;;5051918;28;20027;-69
2021/08/22 01:05:19;;;;;;;5.30;3.28;;;20.10;57.90;;;;;;5051954;28;20048;-68
2021/08/22 01:08:06;;;;;;;14.13;3.72;;;20.10;58.20;;;;;;5036636;28;20021;-68
2021/08/22 01:10:33;;;;;;;4.25;3.15;;;20.10;58.60;;;;;;5034129;28;20473;-69
2021/08/22 01:13:04;;;;;;;13.85;3.47;;;20.10;58.70;;;;;;5051841;28;20021;-69
2021/08/22 01:15:35;;;;;;;10.27;3.42;;;20.10;58.70;;;;;;5051648;28;20029;-69
2021/08/22 01:18:03;;;;;;;6.22;3.58;;;20.10;59.10;;;;;;5051824;28;20021;-69
2021/08/22 01:20:36;;;;;;;9.07;3.58;;;20.10;58.80;;;;;;5051615;28;20032;-69
2021/08/22 01:23:07;;;;;;;11.82;3.63;;;20.10;59.10;;;;;;5051673;28;20028;-69
2021/08/22 01:25:35;;;;;;;5.85;3.67;;;20.10;59.30;;;;;;5052388;28;20027;-69
2021/08/22 01:28:01;;;;;;;6.75;3.60;;;20.10;59.10;;;;;;5055678;28;20148;-70
2021/08/22 01:30:27;;;;;;;5.13;3.10;;;20.10;59.70;;;;;;5055550;28;20029;-69
2021/08/22 01:32:54;;;;;;;7.72;2.80;;;20.20;59.20;;;;;;5055468;28;20071;-68
2021/08/22 01:35:23;;;;;;;5.00;2.90;;;20.20;59.00;;;;;;5055418;28;20048;-68
2021/08/22 01:37:51;;;;;;;5.13;3.67;;;20.10;59.00;;;;;;5037594;28;20044;-68
2021/08/22 01:40:19;;;;;;;5.18;2.58;;;20.10;58.90;;;;;;5055540;28;20017;-69
2021/08/22 01:42:46;;;;;;;3.70;2.75;;;20.20;59.00;;;;;;5055368;28;20456;-69
2021/08/22 01:45:18;;;;;;;9.77;3.00;;;20.20;58.90;;;;;;5055311;28;20477;-69
2021/08/22 01:47:46;;;;;;;4.03;2.85;;;20.10;59.10;;;;;;5055272;28;20020;-68
2021/08/22 01:50:15;;;;;;;5.72;3.20;;;20.20;58.80;;;;;;5055149;28;20467;-69
2021/08/22 01:52:41;;;;;;;8.05;3.50;;;20.10;58.70;;;;;;5055117;28;20478;-68
2021/08/22 01:55:08;;;;;;;4.55;3.08;;;20.10;58.80;;;;;;5055061;28;20032;-69
2021/08/22 01:57:38;;;;;;;6.78;2.85;;;20.10;58.70;;;;;;5055037;28;20010;-69
2021/08/22 02:00:04;;;;;;;4.72;2.95;;;20.10;58.90;;;;;;5055092;28;20422;-69
2021/08/22 02:02:30;;;;;;;6.05;2.70;;;20.10;58.70;;;;;;5054980;28;20116;-69
2021/08/22 02:05:00;;;;;;;4.70;2.92;;;20.00;58.70;;;;;;5055026;28;20108;-69
2021/08/22 02:07:30;;;;;;;4.88;3.35;;;20.00;58.80;;;;;;5055177;28;20025;-68
2021/08/22 02:10:06;;;;;;;4.45;3.15;;;20.00;59.00;;;;;;5054944;28;20017;-69
2021/08/22 02:12:33;;;;;;;3.95;2.88;;;20.00;59.00;;;;;;5054711;28;20509;-69
2021/08/22 02:15:13;;;;;;;4.25;2.97;;;19.90;58.90;;;;;;5054668;28;20029;-69
2021/08/22 02:18:04;;;;;;;4.35;3.08;;;19.90;59.40;;;;;;5020862;28;20020;-68
2021/08/22 02:20:31;;;;;;;4.78;3.05;;;19.90;59.50;;;;;;5036686;28;20025;-69
2021/08/22 02:22:57;;;;;;;4.63;3.15;;;19.90;59.40;;;;;;5054561;28;20025;-69
2021/08/22 02:25:24;;;;;;;3.50;2.67;;;19.90;59.40;;;;;;5053236;28;20156;-68
2021/08/22 02:27:50;;;;;;;4.82;2.97;;;19.90;59.90;;;;;;5036439;28;20028;-68
2021/08/22 02:30:16;;;;;;;4.32;3.22;;;19.90;59.40;;;;;;5054572;28;20029;-68
2021/08/22 02:32:41;;;;;;;5.10;3.28;;;19.90;59.60;;;;;;5054179;28;20036;-68
2021/08/22 02:35:08;;;;;;;5.38;2.78;;;19.90;59.60;;;;;;5054408;28;20025;-69
2021/08/22 02:37:34;;;;;;;7.47;3.47;;;19.90;59.50;;;;;;5035265;28;20024;-69
2021/08/22 02:40:00;;;;;;;7.38;3.13;;;19.90;59.70;;;;;;5054410;28;20351;-69
2021/08/22 02:42:26;;;;;;;4.07;3.03;;;19.90;59.50;;;;;;5054164;28;20021;-68
2021/08/22 02:44:52;;;;;;;14.80;3.63;;;19.90;59.50;;;;;;5036463;28;20076;-69
2021/08/22 02:47:18;;;;;;;3.35;2.58;;;19.90;59.50;;;;;;5054138;28;20176;-69
2021/08/22 02:49:44;;;;;;;3.85;2.70;;;19.90;59.60;;;;;;5036161;28;20024;-69
2021/08/22 02:52:10;;;;;;;4.10;2.95;;;19.90;59.80;;;;;;5054123;28;20074;-69
2021/08/22 02:54:36;;;;;;;6.63;3.55;;;19.90;60.30;;;;;;5053872;28;20029;-68
2021/08/22 02:57:02;;;;;;;5.28;3.30;;;19.90;60.30;;;;;;5054034;28;20021;-69
2021/08/22 02:59:28;;;;;;;3.17;2.55;;;19.90;60.20;;;;;;5036030;28;20111;-68
2021/08/22 03:01:54;;;;;;;5.57;2.85;;;19.90;60.00;;;;;;5053875;28;20013;-69
2021/08/22 03:04:20;;;;;;;5.05;2.92;;;19.90;60.10;;;;;;5036029;28;20028;-69
2021/08/22 03:06:45;;;;;;;3.38;2.65;;;19.90;60.30;;;;;;5035975;28;20021;-68
2021/08/22 03:09:11;;;;;;;3.90;3.05;;;19.90;60.10;;;;;;5053745;28;20024;-69
2021/08/22 03:11:37;;;;;;;3.67;2.72;;;19.90;60.10;;;;;;5053704;28;20382;-69
2021/08/22 03:14:05;;;;;;;4.18;2.92;;;19.90;60.00;;;;;;5053693;28;20013;-68
2021/08/22 03:16:32;;;;;;;4.57;3.20;;;19.90;60.10;;;;;;5053523;28;20032;-69
2021/08/22 03:18:57;;;;;;;3.85;2.97;;;19.80;60.60;;;;;;5053652;28;20054;-68
2021/08/22 03:21:23;;;;;;;5.15;3.30;;;19.90;60.50;;;;;;5053336;28;20021;-68
2021/08/22 03:23:49;;;;;;;3.75;2.70;;;19.80;60.40;;;;;;5053399;28;20025;-69
2021/08/22 03:26:15;;;;;;;3.65;2.80;;;19.80;60.20;;;;;;5053478;28;20017;-69
2021/08/22 03:28:41;;;;;;;6.40;3.42;;;19.80;60.20;;;;;;5053138;28;20053;-68
2021/08/22 03:31:07;;;;;;;3.97;2.90;;;19.80;60.50;;;;;;5053310;28;20493;-69
2021/08/22 03:33:33;;;;;;;4.22;2.70;;;19.80;60.80;;;;;;5035317;28;20533;-69
2021/08/22 03:35:58;;;;;;;4.90;2.97;;;19.80;60.80;;;;;;5053222;28;20068;-68
2021/08/22 03:38:24;;;;;;;6.03;2.65;;;19.80;60.60;;;;;;5053195;28;20024;-68
2021/08/22 03:40:50;;;;;;;4.55;2.78;;;19.80;60.40;;;;;;5053082;28;20021;-69
2021/08/22 03:43:16;;;;;;;3.92;2.97;;;19.80;60.50;;;;;;5053004;28;20070;-69
2021/08/22 03:45:41;;;;;;;5.85;2.70;;;19.70;60.30;;;;;;5053051;28;20440;-69
2021/08/22 03:48:07;;;;;;;4.43;2.90;;;19.70;60.30;;;;;;5052777;28;20044;-69
2021/08/22 03:50:33;;;;;;;4.03;2.92;;;19.70;60.30;;;;;;5052954;28;20052;-68
2021/08/22 03:52:59;;;;;;;3.47;2.80;;;19.70;60.40;;;;;;5052818;28;20074;-68
2021/08/22 03:55:25;;;;;;;3.80;2.92;;;19.70;60.40;;;;;;5053072;28;20025;-69
2021/08/22 03:57:51;;;;;;;4.90;2.80;;;19.70;60.50;;;;;;5052818;28;20017;-69
2021/08/22 04:00:16;;;;;;;8.00;3.30;;;19.60;60.70;;;;;;5052838;28;20040;-69
2021/08/22 04:02:42;;;;;;;7.60;3.33;;;19.60;60.90;;;;;;5052698;28;20021;-69
2021/08/22 04:05:11;;;;;;;3.40;2.75;;;19.60;60.70;;;;;;5052792;28;20028;-69
2021/08/22 04:07:38;;;;;;;8.25;2.97;;;19.60;60.80;;;;;;5036313;28;20032;-69
2021/08/22 04:10:07;;;;;;;3.45;2.95;;;19.60;60.90;;;;;;5052736;28;20098;-69
2021/08/22 04:12:33;;;;;;;5.57;3.40;;;19.50;61.20;;;;;;5052595;28;20029;-69
2021/08/22 04:14:59;;;;;;;5.70;3.50;;;19.50;61.60;;;;;;5052602;28;20048;-69
2021/08/22 04:17:25;;;;;;;4.55;3.58;;;19.50;61.90;;;;;;5052572;28;20017;-68
2021/08/22 04:19:51;;;;;;;3.88;3.28;;;19.50;62.10;;;;;;5052587;28;20090;-69
2021/08/22 04:22:17;;;;;;;3.42;2.78;;;19.50;61.80;;;;;;5052323;28;20024;-69
2021/08/22 04:24:43;;;;;;;4.95;3.85;;;19.50;61.70;;;;;;5052520;28;20493;-69
2021/08/22 04:27:09;;;;;;;4.85;3.10;;;19.50;62.10;;;;;;5034792;28;20033;-69
2021/08/22 04:29:39;;;;;;;6.00;3.03;;;19.50;62.20;;;;;;5052065;28;20041;-68
2021/08/22 04:32:05;;;;;;;6.35;3.13;;;19.50;62.40;;;;;;5052422;28;20374;-69
2021/08/22 04:34:31;;;;;;;6.15;3.40;;;19.60;62.20;;;;;;5052236;28;20440;-69
2021/08/22 04:36:57;;;;;;;5.97;3.70;;;19.60;63.10;;;;;;5052352;28;20031;-69
2021/08/22 04:39:23;;;;;;;5.15;3.53;;;19.60;63.40;;;;;;5052293;28;20021;-68
2021/08/22 04:41:49;;;;;;;9.98;4.68;;;19.60;62.80;;;;;;5052273;28;20032;-69
2021/08/22 04:44:15;;;;;;;16.65;5.25;;;19.70;63.00;;;;;;5052288;28;20024;-69
2021/08/22 04:46:42;;;;;;;12.50;5.00;;;19.70;63.00;;;;;;5052125;28;20063;-69
2021/08/22 04:49:08;;;;;;;11.68;5.78;;;19.80;63.30;;;;;;5052236;28;20456;-69
2021/08/22 04:51:35;;;;;;;12.48;5.07;;;19.80;63.40;;;;;;5051979;28;20369;-69
2021/08/22 04:54:00;;;;;;;10.05;4.82;;;19.80;63.50;;;;;;5052200;28;20025;-69
2021/08/22 04:56:26;;;;;;;8.18;3.60;;;19.90;63.50;;;;;;5051935;28;20040;-69
2021/08/22 04:58:52;;;;;;;6.28;4.32;;;19.90;63.10;;;;;;5052176;28;20017;-69
2021/08/22 05:01:18;;;;;;;11.93;4.03;;;20.00;63.00;;;;;;5054165;28;20405;-69
2021/08/22 05:03:44;;;;;;;10.93;4.55;;;20.10;63.10;;;;;;5056186;28;20013;-69
2021/08/22 05:06:10;;;;;;;9.70;4.13;;;20.20;62.90;;;;;;5056117;28;20021;-69
2021/08/22 05:08:37;;;;;;;7.32;3.63;;;20.30;62.70;;;;;;5055987;28;20024;-69
2021/08/22 05:11:03;;;;;;;6.93;3.90;;;20.40;62.40;;;;;;5056104;28;20382;-69
2021/08/22 05:13:29;;;;;;;6.43;3.85;;;20.50;62.10;;;;;;5055968;28;20021;-69
2021/08/22 05:15:55;;;;;;;7.05;4.20;;;20.60;61.80;;;;;;5055921;28;20470;-69
2021/08/22 05:18:22;;;;;;;5.68;3.78;;;20.60;61.50;;;;;;5055900;28;20017;-69
2021/08/22 05:20:48;;;;;;;6.25;2.90;;;20.70;61.20;;;;;;5055926;28;20028;-69
2021/08/22 05:23:14;;;;;;;5.65;3.97;;;20.70;60.90;;;;;;5055612;28;20373;-69
2021/08/22 05:25:40;;;;;;;8.10;4.03;;;20.80;60.70;;;;;;5055760;28;20056;-69
2021/08/22 05:28:06;;;;;;;7.00;4.68;;;20.80;60.60;;;;;;5055464;28;20072;-69
2021/08/22 05:30:32;;;;;;;6.70;4.03;;;20.90;60.70;;;;;;5055699;28;20033;-69
2021/08/22 05:32:57;;;;;;;8.10;4.18;;;20.90;60.50;;;;;;5055607;28;20029;-69
2021/08/22 05:35:23;;;;;;;5.65;4.30;;;20.90;60.60;;;;;;5055449;28;20470;-69
2021/08/22 05:37:49;;;;;;;13.18;4.80;;;21.00;60.50;;;;;;5055592;28;20373;-69
2021/08/22 05:40:15;;;;;;;7.70;4.40;;;21.00;60.40;;;;;;5055543;28;20502;-68
2021/08/22 05:42:40;;;;;;;5.80;4.35;;;21.10;60.30;;;;;;5055331;28;20025;-69
2021/08/22 05:45:07;;;;;;;7.78;4.63;;;21.20;60.20;;;;;;5055407;28;20091;-69
2021/08/22 05:47:32;;;;;;;5.80;3.83;;;21.20;60.00;;;;;;5055190;28;20025;-68
2021/08/22 05:49:58;;;;;;;7.93;4.60;;;21.30;60.00;;;;;;5055311;28;20021;-69
2021/08/22 05:52:24;;;;;;;5.65;4.10;;;21.40;59.90;;;;;;5055032;28;20028;-69
2021/08/22 05:54:50;;;;;;;8.73;4.20;;;21.50;59.80;;;;;;5055197;28;20494;-69
2021/08/22 05:57:15;;;;;;;6.78;4.50;;;21.60;59.70;;;;;;5055151;28;20150;-69
2021/08/22 05:59:41;;;;;;;6.15;4.28;;;21.70;59.60;;;;;;5055138;28;20454;-68
2021/08/22 06:02:07;;;;;;;9.98;4.15;;;21.90;59.50;;;;;;5055073;28;20021;-69
2021/08/22 06:04:33;;;;;;;8.35;3.97;;;22.00;59.30;;;;;;5054969;28;20071;-69
2021/08/22 06:06:59;;;;;;;4.47;3.75;;;22.20;59.00;;;;;;5055080;28;20078;-69
2021/08/22 06:09:25;;;;;;;4.28;3.50;;;22.30;58.90;;;;;;5054906;28;20021;-69
2021/08/22 06:11:50;;;;;;;10.45;4.50;;;22.50;58.50;;;;;;5054727;28;20029;-70
2021/08/22 06:14:16;;;;;;;7.70;4.85;;;22.60;57.80;;;;;;5054830;28;20021;-69
2021/08/22 06:16:42;;;;;;;7.60;4.07;;;22.80;57.20;;;;;;5054693;28;20029;-69
2021/08/22 06:19:08;;;;;;;4.40;3.72;;;22.90;57.10;;;;;;5054856;28;20029;-69
2021/08/22 06:21:34;;;;;;;6.85;4.05;;;22.90;56.60;;;;;;5054663;28;20092;-68
2021/08/22 06:24:00;;;;;;;4.97;3.83;;;23.00;56.40;;;;;;5054448;28;20477;-69
2021/08/22 06:26:27;;;;;;;8.82;4.05;;;23.10;56.30;;;;;;5054493;28;20025;-69
2021/08/22 06:28:53;;;;;;;7.75;4.57;;;23.20;56.00;;;;;;5036640;28;20080;-69
2021/08/22 06:31:19;;;;;;;8.15;3.90;;;23.20;55.60;;;;;;5054450;28;20484;-69
2021/08/22 06:33:45;;;;;;;5.60;3.80;;;23.20;55.20;;;;;;5054533;28;20492;-69
2021/08/22 06:36:12;;;;;;;4.88;3.72;;;23.10;55.20;;;;;;5054478;28;20025;-69
2021/08/22 06:38:38;;;;;;;6.88;4.15;;;23.10;55.20;;;;;;5036488;28;20029;-69
2021/08/22 06:41:04;;;;;;;6.30;4.43;;;23.00;55.10;;;;;;5054407;28;20142;-69
2021/08/22 06:43:30;;;;;;;6.18;3.20;;;22.90;55.30;;;;;;5054251;28;20489;-69
2021/08/22 06:45:56;;;;;;;8.70;3.72;;;22.90;55.50;;;;;;5054279;28;20029;-69
2021/08/22 06:48:22;;;;;;;4.13;3.47;;;22.90;55.40;;;;;;5054129;28;20017;-69
2021/08/22 06:50:48;;;;;;;6.88;3.97;;;22.90;55.20;;;;;;5054188;28;20052;-69
2021/08/22 06:53:14;;;;;;;5.82;4.00;;;22.80;54.70;;;;;;5053906;28;20079;-69
2021/08/22 06:55:43;;;;;;;8.85;4.50;;;22.70;54.80;;;;;;5054321;28;20021;-69
2021/08/22 06:58:09;;;;;;;6.55;4.00;;;22.60;55.00;;;;;;5054366;28;20527;-69
2021/08/22 07:00:34;;;;;;;7.57;4.82;;;22.50;55.30;;;;;;5053996;28;20152;-69
2021/08/22 07:03:00;;;;;;;6.03;4.50;;;22.50;55.60;;;;;;5054000;28;20100;-69
2021/08/22 07:05:26;;;;;;;8.27;4.75;;;22.40;55.70;;;;;;5053892;28;20058;-69
2021/08/22 07:07:52;;;;;;;10.02;4.00;;;22.40;56.00;;;;;;5035974;28;20032;-69
2021/08/22 07:10:18;;;;;;;9.52;4.68;;;22.40;56.10;;;;;;5053816;28;20486;-69
2021/08/22 07:12:44;;;;;;;22.98;7.85;;;22.40;56.60;;;;;;5053647;28;20541;-70
2021/08/22 07:15:12;;;;;;;7.95;5.40;;;22.40;57.40;;;;;;5053641;28;20025;-69
2021/08/22 07:17:38;;;;;;;6.13;4.93;;;22.50;57.90;;;;;;5053645;28;20025;-69
2021/08/22 07:20:05;;;;;;;6.60;4.95;;;22.40;58.00;;;;;;5053666;28;20476;-69
2021/08/22 07:22:31;;;;;;;9.68;4.93;;;22.50;58.20;;;;;;5053201;28;20017;-69
2021/08/22 07:24:59;;;;;;;7.80;5.68;;;22.50;58.90;;;;;;5052883;28;20438;-69
2021/08/22 07:27:26;;;;;;;6.47;4.55;;;22.50;58.30;;;;;;5053381;28;20104;-69
2021/08/22 07:29:51;;;;;;;5.85;4.38;;;22.50;58.30;;;;;;5053280;28;20126;-69
2021/08/22 07:32:17;;;;;;;7.93;4.95;;;22.50;58.10;;;;;;5053297;28;20526;-69
2021/08/22 07:34:43;;;;;;;7.05;5.05;;;22.60;58.20;;;;;;5053229;28;20035;-69
2021/08/22 07:37:09;;;;;;;9.07;5.38;;;22.60;58.00;;;;;;5053314;28;20061;-69
2021/08/22 07:39:35;;;;;;;9.52;4.40;;;22.60;57.70;;;;;;5052986;28;20416;-69
2021/08/22 07:42:02;;;;;;;9.68;5.13;;;22.60;57.70;;;;;;5053161;28;20017;-69
2021/08/22 07:44:28;;;;;;;6.63;4.75;;;22.70;57.90;;;;;;5053036;28;20033;-69
2021/08/22 07:46:53;;;;;;;6.10;4.72;;;22.70;58.00;;;;;;5053116;28;20057;-69
2021/08/22 07:49:19;;;;;;;6.13;4.55;;;22.80;57.80;;;;;;5053013;28;20009;-69
2021/08/22 07:51:48;;;;;;;4.90;4.30;;;22.90;58.10;;;;;;5035098;28;20021;-69
2021/08/22 07:54:14;;;;;;;7.50;4.38;;;22.90;57.80;;;;;;5052837;28;20176;-69
2021/08/22 07:56:41;;;;;;;6.82;4.20;;;23.10;58.10;;;;;;5052775;28;20115;-69
2021/08/22 07:59:07;;;;;;;8.10;5.07;;;23.10;58.50;;;;;;5052848;28;20024;-69
2021/08/22 08:01:33;;;;;;;8.48;4.60;;;23.20;58.40;;;;;;5052720;28;20474;-69
2021/08/22 08:03:59;;;;;;;7.45;5.18;;;23.40;58.40;;;;;;5052750;28;20063;-69
2021/08/22 08:06:24;;;;;;;10.80;5.28;;;23.50;58.40;;;;;;5052980;28;20074;-69
2021/08/22 08:08:50;;;;;;;7.85;4.80;;;23.50;57.90;;;;;;5052635;28;20025;-69
2021/08/22 08:11:16;;;;;;;7.60;4.65;;;23.60;57.90;;;;;;5052656;28;20036;-69
2021/08/22 08:13:42;;;;;;;7.15;4.97;;;23.70;57.60;;;;;;5052993;28;20074;-69
2021/08/22 08:16:07;;;;;;;7.18;4.88;;;23.80;57.40;;;;;;5052472;28;20377;-69
2021/08/22 08:18:34;;;;;;;6.10;4.90;;;23.90;57.60;;;;;;5034637;28;20055;-69
2021/08/22 08:21:01;;;;;;;8.93;4.93;;;24.10;57.30;;;;;;5052538;28;20075;-69
2021/08/22 08:23:27;;;;;;;6.68;4.78;;;24.30;57.20;;;;;;5052173;28;20478;-69
2021/08/22 08:25:52;;;;;;;7.07;4.90;;;24.40;57.10;;;;;;5052339;28;20027;-69
2021/08/22 08:28:19;;;;;;;6.50;4.90;;;24.60;57.00;;;;;;5052217;28;20033;-69
2021/08/22 08:30:45;;;;;;;7.03;5.25;;;24.70;56.90;;;;;;5052658;28;20025;-69
2021/08/22 08:33:11;;;;;;;6.38;4.80;;;24.90;56.70;;;;;;5034274;28;20037;-69
2021/08/22 08:35:36;;;;;;;5.10;4.40;;;25.10;56.40;;;;;;5051269;28;20054;-69
2021/08/22 08:38:02;;;;;;;6.30;4.35;;;25.30;56.00;;;;;;5034506;28;20024;-69
2021/08/22 08:40:28;;;;;;;8.30;4.97;;;25.40;55.90;;;;;;5052171;28;20013;-70
2021/08/22 08:42:55;;;;;;;6.03;5.25;;;25.50;54.80;;;;;;5034358;28;20022;-69
2021/08/22 08:45:42;;;;;;;9.57;4.93;;;25.70;55.30;;;;;;5052078;28;20017;-69
2021/08/22 08:48:08;;;;;;;6.38;4.40;;;25.90;55.20;;;;;;5052076;28;20086;-69
2021/08/22 08:50:58;;;;;;;9.82;6.57;;;26.00;54.90;;;;;;5052082;28;20100;-69
2021/08/22 08:53:28;;;;;;;7.63;5.80;;;26.10;54.30;;;;;;5051839;28;20021;-69
2021/08/22 08:56:05;;;;;;;8.48;7.00;;;26.30;54.20;;;;;;5052064;28;20029;-69
2021/08/22 08:58:30;;;;;;;9.57;6.40;;;26.40;53.30;;;;;;5052051;28;20025;-70
2021/08/22 09:00:56;;;;;;;9.90;6.25;;;26.40;52.90;;;;;;5052115;28;20029;-69
2021/08/22 09:03:24;;;;;;;7.57;5.53;;;26.50;52.90;;;;;;5051951;28;20044;-69
2021/08/22 09:06:05;;;;;;;6.75;5.82;;;26.60;53.40;;;;;;5052056;28;20100;-70
2021/08/22 09:09:04;;;;;;;8.80;6.22;;;26.80;53.80;;;;;;5051947;28;20025;-69
2021/08/22 09:12:07;;;;;;;6.15;5.50;;;26.90;53.20;;;;;;5051828;28;20533;-69
2021/08/22 09:14:52;;;;;;;7.82;5.35;;;27.10;53.00;;;;;;5051747;28;20108;-69
2021/08/22 09:17:42;;;;;;;11.57;7.13;;;27.30;52.20;;;;;;5051895;28;20480;-71
2021/08/22 09:20:26;;;;;;;7.03;6.30;;;27.40;51.30;;;;;;5051829;28;20104;-69
2021/08/22 09:23:13;;;;;;;12.00;7.57;;;27.50;51.50;;;;;;5051609;28;20027;-70
2021/08/22 09:26:16;;;;;;;13.05;7.10;;;27.50;50.80;;;;;;5029432;28;20017;-69
2021/08/22 09:29:19;;;;;;;13.48;7.85;;;27.60;51.10;;;;;;5051448;28;20053;-70
2021/08/22 09:32:09;;;;;;;12.10;7.07;;;27.60;50.40;;;;;;5036556;28;20028;-70
2021/08/22 09:35:02;;;;;;;8.70;6.75;;;27.70;50.20;;;;;;5051590;28;20530;-70
2021/08/22 09:37:28;;;;;;;14.57;7.47;;;27.70;50.10;;;;;;5034072;28;20417;-70
2021/08/22 09:40:31;;;;;;;7.30;5.68;;;27.80;50.50;;;;;;5051737;28;20075;-70
2021/08/22 09:43:14;;;;;;;9.05;6.47;;;27.90;50.60;;;;;;5051562;28;20025;-70
2021/08/22 09:45:59;;;;;;;9.07;6.03;;;28.00;50.20;;;;;;5018095;28;20025;-70
2021/08/22 09:49:02;;;;;;;10.80;8.13;;;28.10;50.30;;;;;;5055146;28;20028;-69
2021/08/22 09:51:46;;;;;;;11.18;8.20;;;28.20;49.20;;;;;;5055203;28;20025;-70
2021/08/22 09:54:49;;;;;;;15.82;7.63;;;28.30;48.70;;;;;;5055293;28;20017;-70
2021/08/22 09:58:12;;;;;;;7.78;6.57;;;28.30;48.80;;;;;;5055096;28;20505;-70
2021/08/22 10:01:03;;;;;;;7.93;6.13;;;28.30;49.20;;;;;;4993611;28;20071;-70
2021/08/22 10:03:45;;;;;;;8.80;6.88;;;28.40;48.40;;;;;;4993057;28;20586;-70
2021/08/22 10:06:36;;;;;;;9.73;7.55;;;28.50;48.20;;;;;;4993659;28;20438;-69
2021/08/22 10:09:09;;;;;;;7.75;6.32;;;28.50;47.90;;;;;;4993013;28;20034;-70
2021/08/22 10:11:41;;;;;;;9.30;6.63;;;28.60;48.40;;;;;;4993281;28;20093;-70
2021/08/22 10:14:11;;;;;;;9.93;7.43;;;28.70;48.10;;;;;;4993390;28;20468;-69
2021/08/22 10:16:38;;;;;;;8.27;7.20;;;28.80;47.20;;;;;;4993217;28;20030;-70
2021/08/22 10:19:05;;;;;;;9.70;7.75;;;28.80;47.20;;;;;;4993134;28;20114;-69
2021/08/22 10:21:31;;;;;;;9.38;6.88;;;28.80;46.90;;;;;;4976736;28;20026;-69
2021/08/22 10:24:11;;;;;;;12.10;8.02;;;28.90;47.00;;;;;;4992931;28;20026;-69
2021/08/22 10:26:51;;;;;;;9.85;6.70;;;29.00;46.90;;;;;;4993179;28;20113;-70
2021/08/22 10:29:25;;;;;;;10.88;7.00;;;29.10;47.10;;;;;;4992885;28;20104;-70
2021/08/22 10:31:50;;;;;;;;;;;29.10;46.80;;;;;;5043701;28;20454;-70
2021/08/22 10:34:20;;;;;;;10.18;7.38;;;29.20;47.90;;;;;;5054403;28;19988;-70
2021/08/22 10:36:47;;;;;;;11.75;6.32;;;29.30;46.50;;;;;;5054410;28;20475;-70
2021/08/22 10:39:30;;;;;;;9.02;6.75;;;29.30;46.50;;;;;;5054414;28;20120;-71
2021/08/22 10:42:20;;;;;;;9.68;7.60;;;29.40;46.30;;;;;;5054390;28;20013;-70
2021/08/22 10:44:47;;;;;;;9.23;6.97;;;29.40;45.90;;;;;;5036485;28;20112;-70
2021/08/22 10:47:33;;;;;;;9.90;6.78;;;29.50;46.10;;;;;;5036375;28;20549;-71
2021/08/22 10:50:02;;;;;;;9.55;7.82;;;29.50;45.90;;;;;;5054034;28;20051;-70
2021/08/22 10:52:36;;;;;;;8.93;7.47;;;29.60;45.70;;;;;;5054020;28;20390;-70
2021/08/22 10:55:14;;;;;;;8.82;7.55;;;29.70;45.50;;;;;;5054050;28;20477;-70
2021/08/22 10:57:48;;;;;;;10.93;8.23;;;29.70;45.60;;;;;;5037641;28;20017;-70
2021/08/22 11:00:25;;;;;;;10.35;7.05;;;29.70;45.00;;;;;;5035981;28;20017;-71
2021/08/22 11:02:53;;;;;;;9.30;7.65;;;29.80;45.40;;;;;;5054032;28;20236;-70
2021/08/22 11:05:20;;;;;;;12.00;7.90;;;29.80;45.50;;;;;;5053861;28;20029;-70
2021/08/22 11:07:51;;;;;;;12.38;9.93;;;29.90;44.80;;;;;;5053997;28;20035;-69
2021/08/22 11:10:18;;;;;;;12.30;7.90;;;29.90;44.70;;;;;;5035963;28;20031;-70
2021/08/22 11:12:44;;;;;;;8.88;7.15;;;30.00;44.10;;;;;;5053803;28;20470;-70
2021/08/22 11:15:25;;;;;;;14.00;8.30;;;30.10;44.30;;;;;;5053679;28;20032;-70
2021/08/22 11:17:53;;;;;;;10.07;7.57;;;30.10;44.10;;;;;;5039292;28;20070;-70
2021/08/22 11:20:20;;;;;;;10.90;7.38;;;30.10;43.80;;;;;;5053633;28;20021;-71
2021/08/22 11:22:50;;;;;;;11.77;7.00;;;30.20;44.00;;;;;;5053493;28;20470;-71
2021/08/22 11:25:16;;;;;;;11.02;8.20;;;30.10;44.20;;;;;;5035439;28;20506;-71
2021/08/22 11:27:42;;;;;;;11.85;8.10;;;30.10;43.60;;;;;;5053354;28;20108;-70
2021/08/22 11:30:10;;;;;;;11.57;8.98;;;30.10;43.80;;;;;;5033564;28;20069;-72
2021/08/22 11:32:37;;;;;;;13.73;7.80;;;30.00;43.50;;;;;;5033413;28;20333;-70
2021/08/22 11:35:29;;;;;;;8.98;7.18;;;30.00;43.80;;;;;;5033303;28;20025;-69
2021/08/22 11:37:59;;;;;;;7.78;6.60;;;29.90;44.20;;;;;;5016506;28;20021;-71
2021/08/22 11:40:26;;;;;;;9.38;7.20;;;29.90;44.20;;;;;;5033240;28;20147;-70
2021/08/22 11:42:56;;;;;;;11.68;6.68;;;29.90;44.10;;;;;;5032026;28;20028;-69
2021/08/22 11:45:25;;;;;;;9.35;7.97;;;29.90;44.40;;;;;;5033131;28;20035;-71
2021/08/22 11:47:51;;;;;;;13.68;7.20;;;29.90;44.10;;;;;;5033170;28;20025;-70
2021/08/22 11:50:27;;;;;;;9.20;6.57;;;29.90;44.20;;;;;;5033146;28;20101;-69
2021/08/22 11:52:54;;;;;;;8.07;6.25;;;30.00;44.40;;;;;;5033172;28;20222;-71
2021/08/22 11:55:22;;;;;;;11.13;8.05;;;30.10;44.50;;;;;;5032841;28;20026;-71
2021/08/22 11:57:49;;;;;;;15.07;6.95;;;30.20;44.00;;;;;;5033080;28;20028;-69
2021/08/22 12:00:19;;;;;;;10.45;7.40;;;30.30;44.20;;;;;;5033055;28;20021;-70
2021/08/22 12:02:57;;;;;;;10.50;6.85;;;30.40;43.90;;;;;;5032989;28;20426;-70
2021/08/22 12:05:25;;;;;;;16.17;7.18;;;30.40;43.80;;;;;;5031832;28;20427;-70
2021/08/22 12:08:07;;;;;;;13.05;7.10;;;30.40;43.50;;;;;;5032909;28;20022;-70
2021/08/22 12:10:41;;;;;;;9.23;7.45;;;30.40;43.60;;;;;;5032625;28;20056;-70
2021/08/22 12:13:22;;;;;;;8.48;7.22;;;30.30;43.20;;;;;;5032783;28;20024;-70
2021/08/22 12:15:50;;;;;;;9.40;7.43;;;30.30;43.60;;;;;;5018031;28;20506;-69
2021/08/22 12:18:17;;;;;;;10.18;7.07;;;30.30;43.50;;;;;;5031394;28;20026;-69
2021/08/22 12:20:45;;;;;;;10.48;7.18;;;30.20;43.50;;;;;;5032579;28;20024;-69
2021/08/22 12:23:12;;;;;;;6.75;6.00;;;30.20;43.60;;;;;;5032263;28;20474;-70
2021/08/22 12:25:42;;;;;;;7.70;5.75;;;30.20;43.50;;;;;;5032630;28;20501;-70
2021/08/22 12:28:28;;;;;;;8.02;6.40;;;30.20;43.60;;;;;;5024117;28;20052;-69
2021/08/22 12:31:09;;;;;;;12.35;6.03;;;30.20;43.50;;;;;;5052466;28;20431;-70
2021/08/22 12:33:40;;;;;;;9.15;6.50;;;30.20;43.50;;;;;;5052179;28;20056;-70
2021/08/22 12:36:08;;;;;;;8.30;6.40;;;30.30;43.70;;;;;;5052327;28;20029;-71
2021/08/22 12:39:07;;;;;;;7.28;6.25;;;30.30;43.70;;;;;;5052015;28;20021;-70
2021/08/22 12:41:41;;;;;;;8.30;6.30;;;30.30;43.20;;;;;;4990408;28;20061;-70
2021/08/22 12:44:12;;;;;;;7.70;6.10;;;30.30;42.90;;;;;;4990840;28;20033;-70
2021/08/22 12:46:39;;;;;;;10.88;7.53;;;30.30;42.60;;;;;;4990904;28;20034;-70
2021/08/22 12:49:06;;;;;;;8.23;6.85;;;30.30;42.40;;;;;;4990721;28;20026;-70
2021/08/22 12:51:33;;;;;;;8.93;6.28;;;30.20;42.50;;;;;;4990524;28;20030;-70
2021/08/22 12:53:59;;;;;;;8.38;6.75;;;30.20;42.80;;;;;;4971178;28;20114;-70
2021/08/22 12:56:26;;;;;;;10.15;6.00;;;30.20;43.00;;;;;;4981279;28;20034;-70
2021/08/22 12:58:53;;;;;;;7.97;5.72;;;30.20;42.80;;;;;;4990440;28;20069;-70